Flugplatz - Wetter - Augsburg

[Quelle: ADDS]
METAR
EDMA 141150Z 08008KT 9999 OVC015 M02/M05 Q1018 =
EDMA 141100Z 1412/1421 06007KT 9999 OVC014 TEMPO 1412/1416 BKN015
TAF
EDMA 141100Z 1412/1421 06007KT 9999 OVC014 TEMPO 1412/1416 BKN015 =
SR / SS: 07:00 / 15:23 UTC (Augsburg 2018-12-14)

Flugplatz - Wetter - Laupheim

[Quelle: ADDS]
METAR
ETHL 141120Z 06008KT 9999 OVC014 M03/M06 Q1017 GRN =
AMD ETHL 141029Z 1409/1418 07007KT 9999 NSW OVC010 CANCEL 1100
TAF
AMD ETHL 141029Z 1409/1418 07007KT 9999 NSW OVC010 CANCEL 1100 =
SR / SS: 07:04 / 15:28 UTC (Laupheim 2018-12-14)

Flugplatz - Wetter - Memmingen

[Quelle: ADDS]
METAR
EDJA 141150Z 05008KT 9999 OVC015 M03/M06 Q1016 =
EDJA 141100Z 1412/1421 06008KT 9999 OVC014 TEMPO 1412/1415 BKN015
TAF
EDJA 141100Z 1412/1421 06008KT 9999 OVC014 TEMPO 1412/1415 BKN015 =
SR / SS: 06:59 / 15:28 UTC (Memmingen 2018-12-14)

Flugplatz - Wetter - Neuburg/Donau

[Quelle: ADDS]
METAR
ETSN 141158Z 07005KT 9999 FEW015 OVC018 M01/M06 Q1019 WHT FCST CANCEL =
ETSN 141115Z 1412/1421 08008KT 9999 NSW BKN020 PROB30 1412/1421 05012KT 7000 SG BKN012 BY ETGL
TAF
ETSN 141115Z 1412/1421 08008KT 9999 NSW BKN020 PROB30 1412/1421 05012KT 7000 SG BKN012 BY ETGL =
SR / SS: 06:59 / 15:20 UTC (Neuburg 2018-12-14)

Flugplatz - Wetter - Stuttgart

[Quelle: ADDS]
METAR
EDDS 141150Z 07007KT 9999 BKN020 M01/M06 Q1018 NOSIG =
EDDS 141100Z 1412/1512 08008KT 9999 BKN025 BECMG 1416/1418 08003KT
TAF
EDDS 141100Z 1412/1512 08008KT 9999 BKN025 BECMG 1416/1418 08003KT =
SR / SS: 07:07 / 15:28 UTC (Stuttgart 2018-12-14)

Flugplatz - Wetter - Niederstetten

[Quelle: ADDS]
METAR
ETHN 141120Z 09007KT 9999 OVC018 M02/M06 Q1018 WHT =
AMD ETHN 141041Z 1409/1418 08010KT 9999 NSW OVC020 CANCEL 1100
TAF
AMD ETHN 141041Z 1409/1418 08010KT 9999 NSW OVC020 CANCEL 1100 =
SR / SS: 07:09 / 15:23 UTC (Niederstetten 2018-12-14)